Latest Weather Observations for Broome Port

IDW60801

Issued at 7:04 pm WST Saturday 25 February 2017 (issued every 30 minutes, with the page automatically refreshed every 10 minutes)

About weather observations | Map of weather stations | Latest weather observations for WA | Other Formats
Station Details ID: 003102 Name: BROOME NTC AWS Lat: -18.00 Lon: 122.22 Height: 0.0 m
Data from the previous 72 hours. | See also: Recent months for locations in Western Australia
Date/Time
WST
Temp
°C
App
Temp
°C
Dew
Point
°C
Rel
Hum
%
Delta-T
°C
Wind Press
QNH
hPa
Press
MSL
hPa
Rain since
9am
mm
Dir  Spd
km/h
Gust
km/h
Spd
kts
Gust
kts
25/07:00pm 27.4 - - - - N 22 30 12 16 1007.0 1006.9 -
25/06:35pm 27.9 - - - - NNE 37 50 20 27 1006.8 1006.7 -
25/06:30pm 27.9 - - - - NE 43 54 23 29 1006.7 1006.6 -
25/06:16pm 29.7 - - - - ENE 52 70 28 38 1005.9 1005.8 -
25/06:13pm 30.3 - - - - E 48 70 26 38 1005.7 1005.6 -
25/06:06pm 30.8 - - - - ESE 22 57 12 31 1006.0 1005.9 -
25/06:00pm 31.8 - - - - SE 15 24 8 13 1005.3 1005.2 -
25/05:30pm 30.7 - - - - SSW 13 17 7 9 1005.9 1005.8 -
25/05:00pm 29.0 - - - - SW 37 50 20 27 1005.8 1005.7 -
25/04:51pm 28.0 - - - - SSW 48 61 26 33 1005.8 1005.7 -
25/04:43pm 29.3 - - - - SE 28 50 15 27 1006.1 1006.0 -
25/04:30pm 33.8 - - - - E 26 30 14 16 1005.0 1004.9 -
25/04:00pm 33.8 - - - - E 22 26 12 14 1004.7 1004.6 -
25/03:30pm 33.8 - - - - ESE 17 24 9 13 1004.8 1004.7 -
25/03:00pm 33.4 - - - - ESE 19 22 10 12 1005.4 1005.3 -
25/02:37pm 33.3 - - - - SSE 32 44 17 24 1005.5 1005.4 -
25/02:32pm 32.6 - - - - SE 28 44 15 24 1005.5 1005.4 -
25/02:30pm 32.3 - - - - ESE 24 43 13 23 1005.7 1005.6 -
25/02:29pm 32.9 - - - - ESE 24 43 13 23 1005.7 1005.6 -
25/02:00pm 33.7 - - - - E 20 24 11 13 1005.7 1005.6 -
25/01:30pm 33.8 - - - - E 19 22 10 12 1006.2 1006.1 -
25/01:00pm 33.2 - - - - E 17 20 9 11 1006.7 1006.6 -
25/12:30pm 32.9 - - - - E 17 20 9 11 1007.2 1007.1 -
25/12:00pm 32.7 - - - - E 19 20 10 11 1007.6 1007.5 -
25/11:30am 32.4 - - - - E 17 19 9 10 1007.9 1007.8 -
25/11:00am 32.0 - - - - E 19 22 10 12 1008.1 1008.0 -
25/10:30am 31.8 - - - - ESE 17 19 9 10 1008.4 1008.3 -
25/10:00am 31.4 - - - - ESE 20 24 11 13 1008.6 1008.5 -
25/09:30am 31.0 - - - - ESE 24 28 13 15 1008.6 1008.5 -
25/09:00am 30.3 - - - - ESE 24 28 13 15 1008.8 1008.7 -
25/08:30am 30.2 - - - - ESE 28 33 15 18 1008.7 1008.6 -
25/08:00am 29.9 - - - - ESE 19 24 10 13 1008.7 1008.6 -
25/07:30am 29.7 - - - - SE 19 24 10 13 1008.5 1008.4 -
25/07:00am 29.6 - - - - ESE 17 22 9 12 1008.3 1008.2 -
25/06:30am 29.7 - - - - ESE 19 22 10 12 1008.2 1008.1 -
25/06:00am 30.1 - - - - ESE 20 24 11 13 1008.1 1008.0 -
25/05:30am 30.4 - - - - SE 26 30 14 16 1007.9 1007.8 -
25/05:00am 29.9 - - - - SSE 19 22 10 12 1007.6 1007.5 -
25/04:30am 29.8 - - - - S 15 17 8 9 1007.4 1007.3 -
25/04:00am 29.9 - - - - S 17 20 9 11 1007.5 1007.4 -
25/03:30am 30.2 - - - - SSW 17 20 9 11 1007.3 1007.2 -
25/03:00am 30.6 - - - - SSW 17 20 9 11 1007.3 1007.2 -
25/02:30am 30.2 - - - - SW 17 20 9 11 1007.0 1006.9 -
25/02:00am 30.2 - - - - SW 19 20 10 11 1007.2 1007.1 -
25/01:30am 30.3 - - - - WSW 11 17 6 9 1007.3 1007.2 -
25/01:00am 30.4 - - - - WSW 13 15 7 8 1007.4 1007.3 -
25/12:30am 30.5 - - - - WSW 13 15 7 8 1007.7 1007.6 -
25/12:00am 30.5 - - - - WSW 13 15 7 8 1008.2 1008.1 -
 
Date/Time
WST
Temp
°C
App
Temp
°C
Dew
Point
°C
Rel
Hum
%
Delta-T
°C
Wind Press
QNH
hPa
Press
MSL
hPa
Rain since
9am
mm
Dir  Spd
km/h
Gust
km/h
Spd
kts
Gust
kts
24/11:30pm 30.5 - - - - WSW 13 15 7 8 1008.4 1008.3 -
24/11:00pm 30.5 - - - - WSW 15 19 8 10 1008.5 1008.4 -
24/10:30pm 30.0 - - - - W 7 9 4 5 1008.7 1008.6 -
24/10:00pm 30.1 - - - - WNW 6 7 3 4 1008.6 1008.5 -
24/09:30pm 30.2 - - - - WNW 4 6 2 3 1008.7 1008.6 -
24/09:00pm 30.3 - - - - NW 7 9 4 5 1008.5 1008.4 -
24/08:30pm 30.6 - - - - W 4 6 2 3 1008.3 1008.2 -
24/08:00pm 30.4 - - - - NW 7 11 4 6 1008.1 1008.0 -
24/07:30pm 30.1 - - - - NW 9 15 5 8 1007.9 1007.8 -
24/07:00pm 30.6 - - - - W 19 24 10 13 1007.5 1007.4 -
24/06:30pm 30.6 - - - - WSW 22 26 12 14 1007.2 1007.1 -
24/06:00pm 31.3 - - - - W 19 26 10 14 1007.1 1007.0 -
24/05:30pm 33.2 - - - - SW 9 19 5 10 1007.0 1006.9 -
24/05:00pm 32.3 - - - - E 9 20 5 11 1007.8 1007.7 -
24/04:30pm - - - - - E 17 32 9 17 1008.3 1008.2 -
24/04:00pm - - - - - NW 22 30 12 16 1006.4 1006.3 -
24/03:30pm - - - - - NW 22 28 12 15 1006.4 1006.3 -
24/03:00pm - - - - - NW 20 24 11 13 1006.8 1006.7 -
24/02:30pm - - - - - NW 19 22 10 12 1007.2 1007.1 -
24/02:00pm - - - - - NW 19 24 10 13 1007.7 1007.6 -
24/01:30pm - - - - - NW 22 28 12 15 1008.0 1007.9 -
24/01:00pm - - - - - NW 24 28 13 15 1008.5 1008.4 -
24/12:30pm - - - - - NW 20 28 11 15 1009.2 1009.1 -
24/12:00pm - - - - - NW 19 24 10 13 1009.3 1009.2 -
24/11:30am - - - - - NW 19 22 10 12 1009.6 1009.5 -
24/11:00am - - - - - NW 15 20 8 11 1010.0 1009.9 -
24/10:30am - - - - - NW 19 28 10 15 1010.4 1010.3 -
24/10:00am - - - - - WSW 13 15 7 8 1010.1 1010.0 -
24/09:30am - - - - - WSW 13 15 7 8 1010.3 1010.2 -
24/09:00am - - - - - WSW 15 17 8 9 1010.5 1010.4 -
24/08:30am - - - - - SW 13 15 7 8 1010.6 1010.5 -
24/08:00am - - - - - SW 6 9 3 5 1010.6 1010.5 -
24/07:30am - - - - - SW 6 7 3 4 1010.3 1010.2 -
24/07:00am - - - - - WSW 7 11 4 6 1010.4 1010.3 -
24/06:30am - - - - - S 17 19 9 10 1010.1 1010.0 -
24/06:00am - - - - - S 17 20 9 11 1009.9 1009.8 -
24/05:30am - - - - - SSW 20 22 11 12 1009.6 1009.5 -
24/05:00am - - - - - SSW 17 22 9 12 1009.3 1009.2 -
24/04:30am - - - - - SSW 20 24 11 13 1009.2 1009.1 -
24/04:00am - - - - - SSW 20 26 11 14 1009.1 1009.0 -
24/03:30am - - - - - S 17 20 9 11 1008.8 1008.7 -
24/03:00am - - - - - SSW 20 22 11 12 1008.6 1008.5 -
24/02:30am - - - - - SSW 7 11 4 6 1008.6 1008.5 -
24/02:00am - - - - - CALM 0 0 0 0 1008.6 1008.5 -
24/01:30am - - - - - NNE 9 15 5 8 1008.6 1008.5 -
24/01:00am - - - - - NE 15 17 8 9 1008.8 1008.7 -
24/12:30am - - - - - WSW 9 13 5 7 1008.9 1008.8 -
24/12:00am - - - - - WSW 20 22 11 12 1008.8 1008.7 -
 
Date/Time
WST
Temp
°C
App
Temp
°C
Dew
Point
°C
Rel
Hum
%
Delta-T
°C
Wind Press
QNH
hPa
Press
MSL
hPa
Rain since
9am
mm
Dir  Spd
km/h
Gust
km/h
Spd
kts
Gust
kts
23/11:30pm - - - - - WSW 30 35 16 19 1009.0 1008.9 -
23/11:00pm 29.6 - - - - WSW 33 39 18 21 1009.6 1009.5 -
23/10:30pm 29.5 - - - - SW 48 56 26 30 1010.2 1010.1 -
23/10:00pm - - - - - SW 50 61 27 33 1011.0 1010.9 -
23/09:30pm 27.8 - - - - SW 44 50 24 27 1011.5 1011.4 -
23/09:00pm - - - - - SSW 44 52 24 28 1011.7 1011.6 -
23/08:30pm - - - - - SW 22 35 12 19 1011.9 1011.8 -
23/08:00pm - - - - - S 11 24 6 13 1010.7 1010.6 -
23/07:47pm - - - - - ESE 17 26 9 14 1011.0 1010.9 -
23/07:30pm 26.1 - - - - ESE 50 65 27 35 1011.4 1011.3 -
23/07:21pm 23.2 - - - - SE 76 102 41 55 1011.5 1011.4 -
23/07:17pm - - - - - SE 82 102 44 55 1011.2 1011.1 -
23/07:11pm 25.4 - - - - SSE 70 98 38 53 1010.5 1010.4 -
23/07:08pm 25.4 - - - - SSE 63 98 34 53 1010.5 1010.4 -
23/07:04pm - - - - - S 46 76 25 41 1010.8 1010.7 -
23/07:00pm 30.2 - - - - SW 32 69 17 37 1010.4 1010.3 -
23/06:59pm 30.2 - - - - SW 28 69 15 37 1010.1 1010.0 -
23/06:30pm 30.3 - - - - W 20 26 11 14 1008.2 1008.1 -
23/06:00pm - - - - - WNW 26 30 14 16 1007.8 1007.7 -
23/05:30pm 30.3 - - - - WNW 24 30 13 16 1007.6 1007.5 -
23/05:00pm 30.5 - - - - WNW 28 32 15 17 1007.4 1007.3 -
23/04:30pm 30.3 - - - - WNW 28 33 15 18 1007.0 1006.9 -
23/04:00pm 30.4 - - - - WNW 28 35 15 19 1007.2 1007.1 -
23/03:30pm 30.2 - - - - WNW 30 33 16 18 1007.4 1007.3 -
23/03:00pm 30.3 - - - - W 28 35 15 19 1007.7 1007.6 -
23/02:30pm 30.4 - - - - W 28 33 15 18 1007.8 1007.7 -
23/02:00pm 29.9 - - - - W 26 33 14 18 1008.0 1007.9 -
23/01:30pm 30.1 - - - - W 26 35 14 19 1008.4 1008.3 -
23/01:00pm 30.3 - - - - W 24 30 13 16 1008.7 1008.6 -
23/12:30pm 30.1 - - - - W 22 28 12 15 1009.1 1009.0 -
23/12:00pm - - - - - W 20 26 11 14 1009.5 1009.4 -
23/11:30am 29.9 - - - - WSW 20 26 11 14 1009.9 1009.8 -
23/11:00am 29.5 - - - - WSW 20 26 11 14 1010.2 1010.1 -
23/10:30am 29.5 - - - - WSW 17 20 9 11 1010.6 1010.5 -
23/10:00am 29.2 - - - - SW 17 22 9 12 1010.9 1010.8 -
23/09:30am - - - - - SW 17 22 9 12 1011.0 1010.9 -
23/09:00am 29.2 - - - - WSW 19 22 10 12 1011.2 1011.1 -
23/08:30am 29.2 - - - - WSW 17 19 9 10 1011.3 1011.2 -
23/08:00am 29.0 - - - - WSW 19 22 10 12 1011.2 1011.1 -
23/07:30am 29.1 - - - - WSW 17 20 9 11 1011.0 1010.9 -
23/07:00am 29.1 - - - - WSW 17 22 9 12 1010.7 1010.6 -
23/06:30am 28.9 - - - - WSW 19 20 10 11 1010.4 1010.3 -
23/06:00am 28.6 - - - - W 17 20 9 11 1010.1 1010.0 -
23/05:30am 28.6 - - - - W 13 19 7 10 1009.9 1009.8 -
23/05:00am - - - - - WNW 13 17 7 9 1009.6 1009.5 -
23/04:30am - - - - - NW 7 11 4 6 1009.4 1009.3 -
23/04:00am - - - - - NW 11 13 6 7 1009.1 1009.0 -
23/03:30am - - - - - WNW 9 13 5 7 1009.1 1009.0 -
23/03:00am - - - - - NW 6 7 3 4 1009.0 1008.9 -
23/02:30am - - - - - NW 7 9 4 5 1009.0 1008.9 -
23/02:00am - - - - - W 7 11 4 6 1009.3 1009.2 -
23/01:30am - - - - - WNW 9 13 5 7 1009.4 1009.3 -
23/01:00am - - - - - W 9 11 5 6 1009.8 1009.7 -
23/12:30am - - - - - WSW 13 17 7 9 1010.2 1010.1 -
23/12:00am - - - - - WNW 17 20 9 11 1010.2 1010.1 -
 
Date/Time
WST
Temp
°C
App
Temp
°C
Dew
Point
°C
Rel
Hum
%
Delta-T
°C
Wind Press
QNH
hPa
Press
MSL
hPa
Rain since
9am
mm
Dir  Spd
km/h
Gust
km/h
Spd
kts
Gust
kts
22/11:30pm - - - - - W 19 24 10 13 1010.5 1010.4 -
22/11:00pm - - - - - WSW 28 33 15 18 1011.5 1011.4 -
22/10:30pm - - - - - W 19 20 10 11 1011.6 1011.5 -
22/10:00pm - - - - - WNW 19 28 10 15 1011.2 1011.1 -
22/09:30pm - - - - - W 19 22 10 12 1011.6 1011.5 -
22/09:00pm - - - - - WNW 20 24 11 13 1011.1 1011.0 -
22/08:30pm - - - - - WNW 17 20 9 11 1011.2 1011.1 -
22/08:00pm - - - - - WNW 17 19 9 10 1010.8 1010.7 -
22/07:30pm - - - - - WNW 15 17 8 9 1010.0 1009.9 -

Other Formats:

Comma delimited format used in spreadsheet applications
http://www.bom.gov.au/fwo/IDW60801/IDW60801.95202.axf

JavaScript Object Notation format (JSON) in row-major order
http://www.bom.gov.au/fwo/IDW60801/IDW60801.95202.json